Time;durP1;ratioP1;P1;durP2;ratioP2;P2;SDS_P1;SDS_P2;PMS_P1;PMS_P2;Temp;Humidity;BMP_temperature;BMP_pressure;BME280_temperature;BME280_humidity;BME280_pressure;Samples;Min_cycle;Max_cycle;Signal;HPM_P1;HPM_P2
2021/07/26 00:00:54;;;;;;;45.78;12.60;;;;;;;17.07;100.00;97327.59;5074180;28;20044;-82
2021/07/26 00:03:21;;;;;;;50.92;13.38;;;;;;;17.06;100.00;97338.91;5055118;28;20470;-83
2021/07/26 00:05:58;;;;;;;50.45;12.63;;;;;;;16.98;100.00;97324.28;5038273;28;20498;-83
2021/07/26 00:08:33;;;;;;;61.85;13.75;;;;;;;16.85;100.00;97317.44;5056649;28;20074;-83
2021/07/26 00:11:05;;;;;;;51.05;12.98;;;;;;;16.87;100.00;97317.06;5065522;28;20060;-83
2021/07/26 00:13:31;;;;;;;48.35;12.77;;;;;;;16.84;100.00;97313.09;5055202;28;20325;-83
2021/07/26 00:15:59;;;;;;;49.60;12.55;;;;;;;16.81;100.00;97314.63;5053087;28;20062;-83
2021/07/26 00:18:27;;;;;;;59.92;12.32;;;;;;;16.70;100.00;97312.81;5053752;28;20052;-83
2021/07/26 00:20:54;;;;;;;47.10;12.38;;;;;;;16.68;100.00;97304.19;5072330;28;20040;-83
2021/07/26 00:23:21;;;;;;;46.35;12.90;;;;;;;16.63;100.00;97309.97;5054065;28;20051;-83
2021/07/26 00:25:51;;;;;;;52.88;12.30;;;;;;;16.61;100.00;97321.28;5052729;28;20048;-84
2021/07/26 00:28:18;;;;;;;42.53;13.13;;;;;;;16.57;100.00;97319.63;5071776;28;20041;-81
2021/07/26 00:30:44;;;;;;;63.63;11.98;;;;;;;16.57;100.00;97316.91;5036534;28;20547;-82
2021/07/26 00:36:27;;;;;;;37.85;11.43;;;;;;;16.53;100.00;97314.09;5065320;28;20526;-83
2021/07/26 00:38:53;;;;;;;52.17;11.90;;;;;;;16.60;100.00;97327.09;5036758;28;20048;-83
2021/07/26 00:41:22;;;;;;;54.67;11.52;;;;;;;16.57;100.00;97322.38;5052691;28;20044;-83
2021/07/26 00:43:49;;;;;;;43.90;10.98;;;;;;;16.61;100.00;97321.28;5071087;28;20048;-82
2021/07/26 00:46:16;;;;;;;39.20;10.85;;;;;;;16.57;100.00;97309.47;5053149;28;20044;-83
2021/07/26 00:48:44;;;;;;;34.38;12.02;;;;;;;16.56;100.00;97307.09;5073890;28;20052;-83
2021/07/26 00:51:11;;;;;;;44.20;12.02;;;;;;;16.54;100.00;97314.88;5053375;28;20060;-83
2021/07/26 00:53:39;;;;;;;29.92;11.20;;;;;;;16.60;100.00;97316.94;5059419;28;20066;-82
2021/07/26 00:56:06;;;;;;;33.40;11.90;;;;;;;16.53;100.00;97305.88;5064326;28;20053;-83
2021/07/26 00:58:36;;;;;;;28.83;12.25;;;;;;;16.59;100.00;97315.38;5057058;28;20044;-83
2021/07/26 01:01:03;;;;;;;38.20;11.27;;;;;;;16.49;100.00;97313.19;5056973;28;20052;-83
2021/07/26 01:03:29;;;;;;;43.22;11.35;;;;;;;16.53;100.00;97316.03;5055797;28;20041;-82
2021/07/26 01:05:57;;;;;;;35.40;11.75;;;;;;;16.51;100.00;97316.38;5038587;28;20042;-83
2021/07/26 01:08:24;;;;;;;38.13;11.00;;;;;;;16.48;100.00;97325.28;5038108;28;20532;-82
2021/07/26 01:10:50;;;;;;;35.75;10.93;;;;;;;16.48;100.00;97321.75;5056123;28;20040;-81
2021/07/26 01:13:18;;;;;;;40.45;12.35;;;;;;;16.53;100.00;97324.22;5037725;28;20486;-82
2021/07/26 01:15:46;;;;;;;39.88;11.43;;;;;;;16.50;100.00;97322.16;5071513;28;20128;-82
2021/07/26 01:18:16;;;;;;;31.58;11.20;;;;;;;16.41;100.00;97308.75;5053769;28;20067;-82
2021/07/26 01:20:43;;;;;;;31.02;11.35;;;;;;;16.45;100.00;97319.72;5037473;28;20044;-82
2021/07/26 01:23:09;;;;;;;25.85;12.32;;;;;;;16.44;100.00;97313.47;5036912;28;20048;-82
2021/07/26 01:25:37;;;;;;;36.65;12.10;;;;;;;16.49;100.00;97320.59;5071743;28;20081;-83
2021/07/26 01:28:04;;;;;;;34.67;11.65;;;;;;;16.55;100.00;97317.25;5076115;28;20106;-82
2021/07/26 01:30:33;;;;;;;35.35;12.23;;;;;;;16.58;100.00;97318.47;5054826;28;20064;-82
2021/07/26 01:33:00;;;;;;;40.88;11.50;;;;;;;16.51;100.00;97312.84;5048629;28;20033;-82
2021/07/26 01:35:28;;;;;;;35.30;10.43;;;;;;;16.44;100.00;97313.47;5074744;28;20024;-81
2021/07/26 01:37:55;;;;;;;45.58;11.48;;;;;;;16.40;100.00;97303.63;5062153;28;20093;-82
2021/07/26 01:40:21;;;;;;;34.72;10.95;;;;;;;16.30;100.00;97296.81;5042098;28;20418;-82
2021/07/26 01:43:00;;;;;;;33.63;11.23;;;;;;;16.29;100.00;97294.44;5058932;28;20080;-82
2021/07/26 01:45:27;;;;;;;53.15;12.07;;;;;;;16.25;100.00;97304.50;5044541;28;20049;-82
2021/07/26 01:48:02;;;;;;;39.33;11.15;;;;;;;16.17;100.00;97300.84;5093526;28;20040;-82
2021/07/26 01:50:35;;;;;;;43.95;12.23;;;;;;;16.19;100.00;97306.72;5086072;28;20048;-83
2021/07/26 01:53:02;;;;;;;44.58;12.15;;;;;;;16.14;100.00;97307.00;5080748;28;20036;-83
2021/07/26 01:55:29;;;;;;;55.22;12.02;;;;;;;16.11;100.00;97324.91;5061676;28;20041;-83
2021/07/26 01:57:56;;;;;;;38.58;11.38;;;;;;;16.09;100.00;97315.50;5061543;28;20044;-83
2021/07/26 02:00:23;;;;;;;40.97;11.40;;;;;;;16.07;100.00;97315.06;5078415;28;20036;-84
2021/07/26 02:02:49;;;;;;;32.20;10.77;;;;;;;16.07;100.00;97318.59;5060062;28;20048;-82
2021/07/26 02:05:17;;;;;;;54.72;10.57;;;;;;;16.01;100.00;97313.75;5077859;28;20047;-83
2021/07/26 02:07:46;;;;;;;70.68;11.50;;;;;;;16.00;100.00;97314.91;5071024;28;20030;-82
2021/07/26 02:10:13;;;;;;;69.57;11.75;;;;;;;15.96;100.00;97324.94;5079740;28;20037;-82
2021/07/26 02:12:39;;;;;;;53.45;10.85;;;;;;;15.90;100.00;97318.19;5063425;28;20025;-82
2021/07/26 02:15:06;;;;;;;48.55;9.68;;;;;;;15.91;100.00;97328.75;5097047;28;20060;-82
2021/07/26 02:17:35;;;;;;;36.55;10.70;;;;;;;15.91;100.00;97320.56;5079941;28;20025;-82
2021/07/26 02:20:04;;;;;;;33.25;10.27;;;;;;;15.89;100.00;97339.25;5079874;28;20040;-82
2021/07/26 02:22:32;;;;;;;39.30;11.52;;;;;;;15.84;100.00;97331.34;5079768;28;20024;-82
2021/07/26 02:24:59;;;;;;;36.50;10.90;;;;;;;15.84;100.00;97328.63;5062869;28;20043;-81
2021/07/26 02:27:27;;;;;;;30.35;10.07;;;;;;;15.82;100.00;97333.63;5097308;28;20051;-82
2021/07/26 02:29:53;;;;;;;48.63;11.73;;;;;;;15.86;100.00;97339.97;5097378;28;20029;-82
2021/07/26 02:32:20;;;;;;;47.45;11.02;;;;;;;15.79;100.00;97331.63;5079311;28;20051;-83
2021/07/26 02:34:47;;;;;;;53.17;11.60;;;;;;;15.73;100.00;97338.50;5072919;28;20086;-84
2021/07/26 02:37:14;;;;;;;44.53;10.48;;;;;;;15.67;100.00;97345.34;5073321;28;20040;-83
2021/07/26 02:39:41;;;;;;;54.20;11.60;;;;;;;15.73;100.00;97351.34;5087153;28;20464;-83
2021/07/26 02:42:07;;;;;;;61.25;11.55;;;;;;;15.67;100.00;97352.75;5078689;28;20221;-84
2021/07/26 02:44:35;;;;;;;57.40;11.05;;;;;;;15.61;100.00;97346.78;5055456;28;20583;-84
2021/07/26 02:47:02;;;;;;;44.97;10.82;;;;;;;15.61;100.00;97351.44;5063296;28;20039;-83
2021/07/26 02:49:28;;;;;;;37.05;10.07;;;;;;;15.57;100.00;97352.16;5039815;28;20037;-83
2021/07/26 02:51:55;;;;;;;54.10;11.18;;;;;;;15.55;100.00;97348.19;5023880;28;20053;-84
2021/07/26 02:54:24;;;;;;;54.38;10.13;;;;;;;15.53;100.00;97354.03;5039494;28;20047;-83
2021/07/26 02:56:51;;;;;;;64.80;10.82;;;;;;;15.48;100.00;97350.75;5039217;28;20056;-84
2021/07/26 02:59:17;;;;;;;63.10;11.70;;;;;;;15.49;100.00;97357.78;5057384;28;20056;-84
2021/07/26 03:01:44;;;;;;;54.05;11.80;;;;;;;15.41;100.00;97358.72;5055380;28;20025;-83
2021/07/26 03:04:11;;;;;;;35.28;11.38;;;;;;;15.33;100.00;97357.75;5055278;28;20075;-83
2021/07/26 03:06:39;;;;;;;46.47;11.57;;;;;;;15.35;100.00;97363.69;5019918;28;20045;-83
2021/07/26 03:09:06;;;;;;;50.25;11.48;;;;;;;15.37;100.00;97374.22;5036389;28;20072;-83
2021/07/26 03:11:32;;;;;;;43.30;11.38;;;;;;;15.32;100.00;97367.09;5020448;28;20045;-84
2021/07/26 03:13:59;;;;;;;56.17;12.82;;;;;;;15.36;100.00;97372.63;5053224;28;20513;-83
2021/07/26 03:16:26;;;;;;;54.38;11.80;;;;;;;15.35;100.00;97379.25;5036562;28;20493;-82
2021/07/26 03:18:52;;;;;;;57.28;11.55;;;;;;;15.38;100.00;97373.88;5054259;28;20452;-83
2021/07/26 03:21:19;;;;;;;55.35;11.80;;;;;;;15.41;100.00;97386.00;5036249;28;20060;-83
2021/07/26 03:23:46;;;;;;;62.55;12.63;;;;;;;15.40;100.00;97384.44;5036236;28;20053;-83
2021/07/26 03:26:13;;;;;;;49.38;12.55;;;;;;;15.38;100.00;97386.72;5051931;28;20095;-83
2021/07/26 03:28:40;;;;;;;42.33;12.00;;;;;;;15.39;100.00;97401.94;5035600;28;20506;-83
2021/07/26 03:31:07;;;;;;;39.00;11.45;;;;;;;15.42;100.00;97387.59;5053640;28;20052;-84
2021/07/26 03:33:34;;;;;;;57.90;11.57;;;;;;;15.39;100.00;97389.09;5020047;28;20134;-82
2021/07/26 03:36:00;;;;;;;53.95;11.02;;;;;;;15.42;100.00;97391.13;5054962;28;20572;-83
2021/07/26 03:38:29;;;;;;;55.58;11.45;;;;;;;15.38;100.00;97397.66;5054772;28;20045;-83
2021/07/26 03:40:56;;;;;;;54.67;10.73;;;;;;;15.27;100.00;97396.56;5037200;28;20052;-83
2021/07/26 03:43:22;;;;;;;67.65;11.43;;;;;;;15.20;100.00;97386.25;5056325;28;20553;-83
2021/07/26 03:45:49;;;;;;;69.28;11.40;;;;;;;15.25;100.00;97394.19;5057257;28;20063;-83
2021/07/26 03:48:15;;;;;;;60.25;12.15;;;;;;;15.27;100.00;97385.66;5074147;28;20040;-83
2021/07/26 03:50:42;;;;;;;60.60;10.80;;;;;;;15.31;100.00;97379.16;5073672;28;20063;-83
2021/07/26 03:53:09;;;;;;;72.80;12.98;;;;;;;15.38;100.00;97387.50;5075033;28;20045;-81
2021/07/26 03:55:38;;;;;;;64.00;11.90;;;;;;;15.40;100.00;97384.44;5075523;28;20039;-82
2021/07/26 03:58:05;;;;;;;70.55;13.18;;;;;;;15.41;100.00;97386.81;5040604;28;20048;-81
2021/07/26 04:00:32;;;;;;;60.08;13.07;;;;;;;15.45;100.00;97387.72;5072789;28;20040;-81
2021/07/26 04:05:40;;;;;;;69.50;11.88;;;;;;;15.45;100.00;97381.44;5074648;28;20041;-81
2021/07/26 04:08:13;;;;;;;52.20;11.57;;;;;;;15.54;100.00;97385.59;5076751;28;20059;-81
2021/07/26 04:10:45;;;;;;;51.65;11.52;;;;;;;15.64;100.00;97389.72;5091482;28;20044;-82
2021/07/26 04:13:12;;;;;;;45.03;11.25;;;;;;;15.70;100.00;97382.06;5089027;28;20056;-81
2021/07/26 04:15:40;;;;;;;44.05;10.75;;;;;;;15.73;100.00;97387.63;5059397;28;20032;-84
2021/07/26 04:18:07;;;;;;;74.75;12.38;;;;;;;15.77;100.00;97390.44;5092191;28;20045;-85
2021/07/26 04:20:41;;;;;;;43.10;12.20;;;;;;;15.89;100.00;97391.13;5075532;28;20036;-84
2021/07/26 04:23:09;;;;;;;56.72;11.75;;;;;;;15.98;100.00;97386.25;5056140;28;20052;-80
2021/07/26 04:25:39;;;;;;;46.30;11.65;;;;;;;16.09;100.00;97390.03;5066479;28;20066;-82
2021/07/26 04:28:07;;;;;;;47.08;12.23;;;;;;;16.25;100.00;97383.72;5046421;28;20040;-81
2021/07/26 04:30:35;;;;;;;54.72;12.13;;;;;;;16.34;100.00;97382.34;5047293;28;20064;-81
2021/07/26 04:33:09;;;;;;;40.58;12.30;;;;;;;16.31;100.00;97385.03;5064657;28;20099;-84
2021/07/26 04:35:40;;;;;;;47.28;11.00;;;;;;;16.47;100.00;97389.25;5049814;28;20045;-82
2021/07/26 04:38:13;;;;;;;47.40;12.23;;;;;;;16.54;100.00;97380.47;5068594;28;20029;-81
2021/07/26 04:40:50;;;;;;;35.65;11.75;;;;;;;16.81;100.00;97402.09;5041716;28;20041;-82
2021/07/26 04:43:17;;;;;;;40.05;12.75;;;;;;;17.06;100.00;97410.78;5072574;28;20045;-80
2021/07/26 04:45:45;;;;;;;33.53;12.60;;;;;;;17.28;100.00;97412.78;5073662;28;20036;-82
2021/07/26 04:48:16;;;;;;;26.98;13.90;;;;;;;17.54;100.00;97414.03;5055926;28;20043;-81
2021/07/26 04:50:43;;;;;;;32.95;13.20;;;;;;;17.70;100.00;97411.94;5058373;28;20512;-81
2021/07/26 04:53:13;;;;;;;32.58;13.20;;;;;;;17.87;100.00;97405.97;5058557;28;20404;-81
2021/07/26 04:55:42;;;;;;;27.15;11.10;;;;;;;18.03;100.00;97396.44;5075588;28;20036;-81
2021/07/26 04:58:09;;;;;;;27.98;12.15;;;;;;;18.18;100.00;97408.38;5038647;28;20056;-81
2021/07/26 05:00:36;;;;;;;30.38;11.35;;;;;;;18.29;100.00;97398.38;5075423;28;20051;-81
2021/07/26 05:03:09;;;;;;;27.10;10.48;;;;;;;18.40;100.00;97393.81;5080911;28;20047;-83
2021/07/26 05:05:40;;;;;;;21.30;11.10;;;;;;;18.52;100.00;97390.88;5056939;28;20113;-81
2021/07/26 05:08:16;;;;;;;28.05;10.68;;;;;;;18.60;100.00;97387.06;5089282;28;20477;-86
2021/07/26 05:10:58;;;;;;;17.20;9.88;;;;;;;18.61;100.00;97376.88;5023207;28;20044;-82
2021/07/26 05:13:25;;;;;;;22.00;10.07;;;;;;;18.74;100.00;97389.19;5058112;28;20524;-79
2021/07/26 05:15:52;;;;;;;19.80;9.60;;;;;;;18.73;100.00;97390.38;5075762;28;20063;-80
2021/07/26 05:18:18;;;;;;;23.15;10.10;;;;;;;18.78;100.00;97397.47;5074173;28;20524;-80
2021/07/26 05:20:46;;;;;;;18.98;10.20;;;;;;;18.76;100.00;97391.56;5038314;28;20055;-82
2021/07/26 05:23:17;;;;;;;24.52;10.07;;;;;;;18.79;100.00;97396.31;5057304;28;20048;-81
2021/07/26 05:25:45;;;;;;;21.20;10.27;;;;;;;18.87;100.00;97395.19;5072986;28;20109;-83
2021/07/26 05:28:13;;;;;;;18.23;9.85;;;;;;;18.83;100.00;97397.13;5072146;28;20560;-82
2021/07/26 05:30:42;;;;;;;17.45;9.30;;;;;;;18.81;100.00;97393.97;5046015;28;20142;-83
2021/07/26 05:33:17;;;;;;;20.73;9.73;;;;;;;18.85;100.00;97397.53;5075569;28;20043;-83
2021/07/26 05:35:48;;;;;;;18.60;9.85;;;;;;;18.80;100.00;97387.69;5075602;28;20040;-82
2021/07/26 05:38:21;;;;;;;19.83;9.23;;;;;;;18.85;100.00;97390.09;5074464;28;20072;-82
2021/07/26 05:41:02;;;;;;;14.27;9.40;;;;;;;18.91;100.00;97383.13;5076654;28;20119;-82
2021/07/26 05:43:45;;;;;;;16.65;8.38;;;;;;;19.02;100.00;97386.00;5055185;28;20574;-83
2021/07/26 05:46:24;;;;;;;16.42;8.40;;;;;;;19.08;100.00;97385.25;5065462;28;20229;-85
2021/07/26 05:48:53;;;;;;;21.17;9.95;;;;;;;19.17;100.00;97365.75;5078657;28;20100;-85
2021/07/26 05:51:36;;;;;;;22.58;8.85;;;;;;;19.34;100.00;97381.59;5051736;28;20083;-84
2021/07/26 05:54:12;;;;;;;16.67;9.10;;;;;;;19.39;100.00;97381.28;5048138;28;20072;-83
2021/07/26 05:56:47;;;;;;;18.65;9.07;;;;;;;19.47;100.00;97391.16;5075204;28;20051;-83
2021/07/26 05:59:16;;;;;;;19.98;8.85;;;;;;;19.62;100.00;97392.88;5059492;28;20044;-83
2021/07/26 06:01:48;;;;;;;18.02;9.23;;;;;;;19.71;100.00;97398.06;5099294;28;20058;-83
2021/07/26 06:04:37;;;;;;;16.77;8.82;;;;;;;19.68;100.00;97374.88;5055065;28;20110;-83
2021/07/26 06:07:06;;;;;;;16.77;8.60;;;;;;;19.73;100.00;97390.22;5057697;28;20112;-85
2021/07/26 06:09:33;;;;;;;15.25;8.13;;;;;;;19.75;100.00;97380.41;5063851;28;20512;-83
2021/07/26 06:12:04;;;;;;;15.88;8.77;;;;;;;19.80;100.00;97374.56;5041502;28;20429;-82
2021/07/26 06:14:31;;;;;;;17.55;8.73;;;;;;;19.81;100.00;97372.63;5042954;28;20061;-84
2021/07/26 06:17:00;;;;;;;14.98;8.25;;;;;;;19.91;100.00;97380.16;5088459;28;20037;-82
2021/07/26 06:19:30;;;;;;;14.52;8.82;;;;;;;19.98;100.00;97387.63;5063870;28;20549;-83
2021/07/26 06:22:00;;;;;;;15.40;8.55;;;;;;;19.96;100.00;97371.53;5041613;28;20485;-82
2021/07/26 06:24:43;;;;;;;18.00;8.60;;;;;;;20.13;100.00;97373.59;5041054;28;20529;-84
2021/07/26 06:27:32;;;;;;;15.98;8.60;;;;;;;20.29;100.00;97368.63;5058347;28;20513;-82
2021/07/26 06:30:46;;;;;;;12.32;7.10;;;;;;;20.68;100.00;97363.31;4962725;29;20075;-85
2021/07/26 06:33:37;;;;;;;9.30;6.77;;;;;;;20.79;100.00;97355.91;4941704;29;20051;-83
2021/07/26 06:36:07;;;;;;;10.25;6.45;;;;;;;20.99;100.00;97359.09;4955183;29;20047;-84
2021/07/26 06:38:36;;;;;;;11.38;7.03;;;;;;;21.09;100.00;97350.91;4937900;29;20297;-83
2021/07/26 06:41:06;;;;;;;10.80;6.50;;;;;;;21.19;100.00;97352.09;4943406;29;20039;-83
2021/07/26 06:43:38;;;;;;;11.43;6.40;;;;;;;21.31;100.00;97360.00;4942916;29;20031;-83
2021/07/26 06:46:12;;;;;;;12.43;7.18;;;;;;;21.44;100.00;97350.16;4950713;29;20163;-84
2021/07/26 06:48:39;;;;;;;14.63;6.85;;;;;;;21.53;100.00;97345.03;4927586;29;20089;-84
2021/07/26 06:51:27;;;;;;;13.25;6.53;;;;;;;21.67;100.00;97364.34;4942097;29;20501;-84
2021/07/26 06:54:06;;;;;;;15.52;6.80;;;;;;;21.83;100.00;97363.94;4948053;28;20079;-83
2021/07/26 06:56:40;;;;;;;10.68;6.60;;;;;;;21.86;100.00;97363.16;5050853;28;20054;-84
2021/07/26 06:59:18;;;;;;;12.18;6.40;;;;;;;21.94;100.00;97355.69;5065958;28;20295;-83
2021/07/26 07:01:54;;;;;;;13.43;7.05;;;;;;;22.11;100.00;97365.91;5091079;28;20191;-82
2021/07/26 07:04:28;;;;;;;12.40;6.32;;;;;;;22.17;100.00;97351.28;5074286;28;20041;-82
2021/07/26 07:06:54;;;;;;;9.52;6.60;;;;;;;22.39;100.00;97368.59;5071251;28;20040;-82
2021/07/26 07:09:25;;;;;;;11.40;6.43;;;;;;;22.41;100.00;97366.22;5045436;28;20116;-83
2021/07/26 07:11:54;;;;;;;7.85;5.68;;;;;;;22.58;100.00;97368.16;5064332;28;20044;-76
2021/07/26 07:14:21;;;;;;;11.32;6.53;;;;;;;22.72;100.00;97368.09;5051072;28;20502;-77
2021/07/26 07:16:48;;;;;;;12.90;6.00;;;;;;;22.85;100.00;97387.75;5065394;28;20029;-75
2021/07/26 07:19:14;;;;;;;12.50;6.32;;;;;;;22.95;100.00;97384.97;5069100;28;20493;-77
2021/07/26 07:21:41;;;;;;;11.57;6.32;;;;;;;23.01;100.00;97388.09;5070197;28;20055;-77
2021/07/26 07:24:08;;;;;;;8.30;5.85;;;;;;;23.03;100.00;97387.69;5069856;28;20498;-77
2021/07/26 07:26:38;;;;;;;10.02;6.10;;;;;;;23.15;100.00;97376.19;5052948;28;20040;-77
2021/07/26 07:29:07;;;;;;;7.88;5.53;;;;;;;23.25;100.00;97383.63;5032371;28;20107;-77
2021/07/26 07:31:37;;;;;;;10.43;6.00;;;;;;;23.37;100.00;97374.88;5052184;28;20048;-78
2021/07/26 07:34:04;;;;;;;9.93;5.93;;;;;;;23.36;100.00;97371.31;5053309;28;20327;-78
2021/07/26 07:36:31;;;;;;;10.32;5.43;;;;;;;23.41;100.00;97376.44;5053930;28;20044;-78
2021/07/26 07:38:59;;;;;;;9.80;5.95;;;;;;;23.49;100.00;97375.19;5073544;28;20052;-77
2021/07/26 07:41:26;;;;;;;9.23;6.13;;;;;;;23.49;100.00;97375.19;5055412;28;20033;-79
2021/07/26 07:43:55;;;;;;;9.52;6.40;;;;;;;23.59;100.00;97364.47;5070667;28;20041;-77
2021/07/26 07:46:22;;;;;;;6.40;5.40;;;;;;;23.78;100.00;97372.19;5070257;28;20060;-78
2021/07/26 07:48:50;;;;;;;11.68;6.25;;;;;;;23.78;100.00;97375.75;5070985;28;20051;-79
2021/07/26 07:51:18;;;;;;;7.80;6.10;;;;;;;23.72;100.00;97384.91;5052388;28;20045;-78
2021/07/26 07:53:46;;;;;;;9.40;6.03;;;;;;;23.88;100.00;97376.84;5053850;28;20075;-79
2021/07/26 07:56:13;;;;;;;10.77;5.72;;;;;;;23.94;100.00;97376.03;5073081;28;20041;-79
2021/07/26 07:58:41;;;;;;;13.10;6.22;;;;;;;23.99;100.00;97372.03;5056017;28;20040;-78
2021/07/26 08:01:07;;;;;;;14.20;6.00;;;;;;;23.98;100.00;97382.28;5083673;28;20052;-79
2021/07/26 08:03:37;;;;;;;7.35;5.35;;;;;;;23.94;100.00;97378.78;5069301;28;20078;-80
2021/07/26 08:06:06;;;;;;;11.45;5.60;;;;;;;24.04;100.00;97379.88;5089339;28;20063;-79
2021/07/26 08:08:33;;;;;;;11.68;5.10;;;;;;;24.11;100.00;97366.78;5088609;28;20103;-79
2021/07/26 08:11:00;;;;;;;7.38;5.10;;;;;;;24.45;100.00;97388.97;5064868;28;20060;-79
2021/07/26 08:13:30;;;;;;;13.88;5.18;;;;;;;24.50;100.00;97382.19;5066243;28;20182;-79
2021/07/26 08:15:58;;;;;;;7.82;4.97;;;;;;;24.68;100.00;97375.28;5061816;28;20064;-78
2021/07/26 08:18:26;;;;;;;11.35;4.97;;;;;;;24.80;100.00;97378.72;5076695;28;20494;-79
2021/07/26 08:20:53;;;;;;;9.65;4.72;;;;;;;24.62;100.00;97387.97;5086199;28;20044;-78
2021/07/26 08:23:21;;;;;;;11.30;4.57;;;;;;;24.38;100.00;97380.75;5100518;23;20025;-80
2021/07/26 08:25:48;;;;;;;8.52;4.43;;;;;;;24.72;100.00;97378.75;5112213;28;20042;-79
2021/07/26 08:28:17;;;;;;;12.90;5.18;;;;;;;24.70;100.00;97378.41;5115130;28;20067;-79
2021/07/26 08:30:46;;;;;;;11.25;4.32;;;;;;;25.02;100.00;97374.47;5120018;28;20055;-79
2021/07/26 08:33:16;;;;;;;6.30;3.35;;;;;;;25.28;100.00;97382.81;5139839;27;20043;-78
2021/07/26 08:35:42;;;;;;;7.88;3.85;;;;;;;25.46;100.00;97381.81;5146235;27;20584;-78
2021/07/26 08:38:09;;;;;;;9.32;4.03;;;;;;;25.49;100.00;97384.53;5130024;27;20043;-79
2021/07/26 08:40:40;;;;;;;8.50;4.43;;;;;;;25.87;100.00;97383.13;5134396;28;20078;-79
2021/07/26 08:43:11;;;;;;;9.35;4.60;;;;;;;25.49;100.00;97384.53;5114652;28;20447;-79
2021/07/26 08:45:38;;;;;;;8.35;4.85;;;;;;;25.40;100.00;97387.78;5133700;27;20470;-80
2021/07/26 08:48:08;;;;;;;8.15;5.20;;;;;;;25.78;100.00;97382.09;5137154;27;20047;-81
2021/07/26 08:50:38;;;;;;;7.18;4.90;;;;;;;26.08;100.00;97395.06;5137856;27;20047;-79
2021/07/26 08:53:07;;;;;;;8.60;4.53;;;;;;;26.18;100.00;97394.13;5138544;27;20035;-79
2021/07/26 08:55:34;;;;;;;10.15;4.88;;;;;;;26.22;100.00;97394.88;5138526;27;20091;-82
2021/07/26 08:58:04;;;;;;;5.80;4.28;;;;;;;26.08;100.00;97395.84;5135710;27;20051;-79
2021/07/26 09:00:32;;;;;;;8.35;4.63;;;;;;;26.01;100.00;97401.53;5129072;27;20035;-80
2021/07/26 09:03:02;;;;;;;5.28;3.85;;;;;;;25.88;100.00;97397.78;5120173;27;20121;-80
2021/07/26 09:05:33;;;;;;;6.25;4.55;;;;;;;25.82;100.00;97393.91;5121653;27;20048;-80
2021/07/26 09:08:01;;;;;;;9.85;5.05;;;;;;;25.73;100.00;97388.91;5127928;27;20039;-78
2021/07/26 09:10:35;;;;;;;7.35;4.65;;;;;;;25.99;100.00;97401.94;5107101;28;20043;-78
2021/07/26 09:13:10;;;;;;;8.80;4.85;;;;;;;26.19;100.00;97395.72;5125948;28;20441;-79
2021/07/26 09:15:37;;;;;;;6.38;4.32;;;;;;;26.65;100.00;97403.97;5107960;28;20050;-79
2021/07/26 09:18:06;;;;;;;5.65;4.47;;;;;;;26.03;100.00;97401.91;5106556;28;20039;-77
2021/07/26 09:20:34;;;;;;;9.68;4.22;;;;;;;26.52;100.00;97403.03;5125918;28;20051;-81
2021/07/26 09:23:12;;;;;;;10.95;4.90;;;;;;;26.61;100.00;97406.81;5113285;27;20047;-80
2021/07/26 09:25:41;;;;;;;10.00;4.50;;;;;;;26.54;100.00;97404.16;5127185;27;20380;-80
2021/07/26 09:28:20;;;;;;;6.97;4.30;;;;;;;27.17;100.00;97399.34;5098500;28;20050;-80
2021/07/26 09:30:47;;;;;;;5.82;4.20;;;;;;;27.53;100.00;97395.81;5129982;27;20039;-80
2021/07/26 09:33:23;;;;;;;5.60;4.30;;;;;;;27.31;100.00;97394.66;5136899;27;20066;-80
2021/07/26 09:36:18;;;;;;;11.93;4.35;;;;;;;27.29;100.00;97395.13;5137129;27;20051;-82
2021/07/26 09:38:48;;;;;;;12.43;4.85;;;;;;;27.47;100.00;97392.75;5133683;27;20037;-81
2021/07/26 09:41:16;;;;;;;5.82;4.40;;;;;;;28.10;100.00;97395.25;5109120;27;20052;-80
2021/07/26 09:43:43;;;;;;;8.02;4.15;;;;;;;27.76;100.00;97399.22;5124607;27;20031;-81
2021/07/26 09:46:25;;;;;;;6.40;4.32;;;;;;;27.85;100.00;97392.28;5118575;27;20110;-81
2021/07/26 09:49:12;;;;;;;10.35;5.05;;;;;;;28.53;100.00;97389.31;5136319;27;20045;-81
2021/07/26 09:51:39;;;;;;;;;;;;;;;28.99;100.00;97386.84;5118674;27;20042;-84
2021/07/26 09:54:06;;;;;;;7.53;4.50;;;;;;;29.07;100.00;97381.84;5137689;27;19919;-83
2021/07/26 09:56:33;;;;;;;7.97;4.90;;;;;;;28.53;100.00;97392.13;5118501;27;20382;-84
2021/07/26 09:59:01;;;;;;;7.05;4.00;;;;;;;30.13;100.00;97382.09;5118596;27;20051;-84
2021/07/26 10:01:29;;;;;;;6.70;3.70;;;;;;;30.60;70.83;97386.91;5118959;27;20115;-83
2021/07/26 10:03:57;;;;;;;7.93;4.13;;;;;;;30.17;69.35;97370.81;5119310;27;20090;-84
2021/07/26 10:06:26;;;;;;;5.13;3.90;;;;;;;30.64;65.00;97382.72;5119298;27;20046;-84
2021/07/26 10:08:58;;;;;;;5.57;3.70;;;;;;;29.54;72.28;97380.03;5132277;27;20043;-83
2021/07/26 10:11:25;;;;;;;7.93;3.72;;;;;;;29.09;87.55;97379.38;5139903;27;20043;-83
2021/07/26 10:13:52;;;;;;;6.28;3.70;;;;;;;29.47;68.28;97385.06;5148372;27;20193;-83
2021/07/26 10:16:19;;;;;;;6.78;3.78;;;;;;;30.92;58.25;97383.72;5136633;27;20088;-85
2021/07/26 10:18:52;;;;;;;6.05;4.32;;;;;;;30.92;64.18;97378.16;5137948;27;20042;-82
2021/07/26 10:21:25;;;;;;;5.88;4.20;;;;;;;31.73;53.17;97374.25;5137192;27;20051;-85
2021/07/26 10:24:00;;;;;;;5.97;3.78;;;;;;;31.89;56.07;97376.78;5143476;27;20050;-84
2021/07/26 10:26:47;;;;;;;6.88;4.30;;;;;;;32.22;56.21;97374.22;5123185;27;20038;-84
2021/07/26 10:29:16;;;;;;;6.13;4.30;;;;;;;32.59;52.56;97364.63;5122710;27;20031;-83
2021/07/26 10:34:34;;;;;;;7.97;4.00;;;;;;;32.74;45.68;97359.16;5078762;28;20497;-77
2021/07/26 10:37:04;;;;;;;6.07;4.05;;;;;;;33.02;44.21;97358.66;5072417;28;20063;-79
2021/07/26 10:40:13;;;;;;;5.93;4.15;;;;;;;34.30;45.79;97358.94;5102579;28;20579;-78
2021/07/26 10:42:41;;;;;;;7.80;3.63;;;;;;;35.74;40.87;97355.19;5030726;28;20250;-77
2021/07/26 10:45:08;;;;;;;7.43;4.28;;;;;;;34.34;42.90;97346.25;5077995;28;20100;-77
2021/07/26 10:47:38;;;;;;;8.98;3.72;;;;;;;33.55;48.48;97366.63;5106407;22;20056;-83
2021/07/26 10:50:10;;;;;;;7.82;3.97;;;;;;;35.65;43.60;97351.22;5092371;28;20134;-80
2021/07/26 10:52:45;;;;;;;5.85;4.10;;;;;;;35.89;39.15;97355.91;5062922;28;20071;-76
2021/07/26 10:55:52;;;;;;;4.82;3.78;;;;;;;35.53;41.60;97352.31;5080848;28;20044;-81
2021/07/26 10:58:54;;;;;;;6.50;3.70;;;;;;;35.06;43.55;97349.69;5066264;28;20040;-78
2021/07/26 11:01:24;;;;;;;6.13;3.50;;;;;;;35.55;35.82;97355.41;5072429;28;20040;-80
2021/07/26 11:03:56;;;;;;;7.15;3.75;;;;;;;34.94;36.25;97345.91;5056110;28;20067;-83
2021/07/26 11:06:38;;;;;;;5.50;3.40;;;;;;;35.07;36.86;97348.44;5092564;28;20044;-82
2021/07/26 11:09:32;;;;;;;6.47;3.50;;;;;;;36.93;34.12;97335.19;5101375;28;20040;-79
2021/07/26 11:12:00;;;;;;;5.00;3.75;;;;;;;37.35;34.67;97329.69;5090922;28;20208;-77
2021/07/26 11:14:31;;;;;;;6.20;3.28;;;;;;;38.63;32.73;97322.75;5130499;28;20065;-77
2021/07/26 11:17:02;;;;;;;8.52;3.60;;;;;;;37.29;32.64;97328.88;5109715;28;20058;-78
2021/07/26 11:19:30;;;;;;;4.28;3.35;;;;;;;37.60;31.36;97322.47;5110300;28;20058;-82
2021/07/26 11:22:14;;;;;;;4.95;3.58;;;;;;;36.88;33.65;97324.63;5109852;28;20054;-79
2021/07/26 11:24:41;;;;;;;5.68;3.50;;;;;;;37.14;33.32;97317.69;5129557;28;20032;-79
2021/07/26 11:27:12;;;;;;;6.88;3.60;;;;;;;37.46;34.29;97318.50;5106195;28;20134;-83
2021/07/26 11:29:52;;;;;;;6.32;3.67;;;;;;;38.63;32.65;97312.22;5090570;28;20050;-85
2021/07/26 11:32:28;;;;;;;6.38;3.78;;;;;;;36.72;34.09;97314.72;5107912;28;20074;-82
2021/07/26 11:35:03;;;;;;;4.75;3.72;;;;;;;36.23;35.10;97308.00;5103460;28;20073;-84
2021/07/26 11:37:36;;;;;;;5.07;3.67;;;;;;;37.51;31.55;97297.22;5096704;28;20040;-81
2021/07/26 11:40:28;;;;;;;4.25;3.78;;;;;;;37.39;33.98;97299.16;5058812;28;20043;-85